Terminal Aerodrome Forecast
Issued by NWS

Home | Current Version | Previous Version | Text Only | Print | Product List | Glossary On
Versions: 1 2 3 4 5 6 7 8 9 10 11 12 13 14 15 16 17 18 19 20 21 22 23 24 25 26 27 28 29 30 31 32 33 34 35
137
FTUS44 KBMX 221916 AAC
TAFTOI
TAF AMD
KTOI 221916Z 2219/2318 20010KT 5SM RA VCTS BKN020 OVC040CB
      TEMPO 2219/2221 28020G35KT 2SM +RA OVC040
     FM222200 27013G19KT P6SM VCSH OVC040
     FM230300 26014G20KT P6SM OVC015
     FM230900 32015G25KT P6SM OVC015=

USA.gov is the U.S. government's official web portal to all federal, state and local government web resources and services.